Aquidaba, Brazil
Current Conditions -  °F | °C
As of 3:00 PM on Friday 21 Nov 2014 (Local Time) from SBAR Reporting Station
Rain Showers Rain Showers  
Wind Chill: 81°   Ceiling: Unl
Heat Index: 86°   Visibility: 6mi
Dew Point: 75°   Wind: 10mph
Humidity: 84%   Direction: 120°ESE
Pressure: 29.88"   Gusts: NA
Location:  10.28°S, 37.02°W
Report Text: SBAR 211800Z 12009KT 9999 VCSH FEW013 SCT017 27/24 Q1012
Loading
Personal Weather Stations






























Interactive Weather Map New forecast layout! Learn more

10-Day Weather Forecast

Advertisements
Track Severe Weather on mobile